createdAt,value
2018-07-12T00:00:37.420Z,20.10
2018-07-12T00:03:06.236Z,20.67
2018-07-12T00:05:35.109Z,22.20
2018-07-12T00:08:04.000Z,19.87
2018-07-12T00:10:32.278Z,21.10
2018-07-12T00:13:01.264Z,22.43
2018-07-12T00:15:29.692Z,20.37
2018-07-12T00:17:58.728Z,20.97
2018-07-12T00:20:27.216Z,23.27
2018-07-12T00:22:56.007Z,20.40
2018-07-12T00:25:24.511Z,20.00
2018-07-12T00:27:53.183Z,20.77
2018-07-12T00:30:21.637Z,20.63
2018-07-12T00:32:50.242Z,22.67
2018-07-12T00:35:18.826Z,21.33
2018-07-12T00:37:47.417Z,21.23
2018-07-12T00:40:16.168Z,22.47
2018-07-12T00:42:44.473Z,22.43
2018-07-12T00:45:13.336Z,23.33
2018-07-12T00:47:42.026Z,21.90
2018-07-12T00:50:10.305Z,23.60
2018-07-12T00:52:38.369Z,22.83
2018-07-12T00:55:06.649Z,23.70
2018-07-12T00:57:35.423Z,22.30
2018-07-12T01:00:03.729Z,22.30
2018-07-12T01:02:32.193Z,23.50
2018-07-12T01:05:00.465Z,21.70
2018-07-12T01:07:28.533Z,23.83
2018-07-12T01:09:57.349Z,21.83
2018-07-12T01:12:25.910Z,23.10
2018-07-12T01:14:54.113Z,23.13
2018-07-12T01:17:22.401Z,22.27
2018-07-12T01:19:50.662Z,21.23
2018-07-12T01:22:19.317Z,21.63
2018-07-12T01:24:47.517Z,23.27
2018-07-12T01:27:15.877Z,22.27
2018-07-12T01:29:43.836Z,22.53
2018-07-12T01:32:11.813Z,23.70
2018-07-12T01:34:39.878Z,22.47
2018-07-12T01:37:07.945Z,21.87
2018-07-12T01:39:36.228Z,24.33
2018-07-12T01:42:04.599Z,22.10
2018-07-12T01:44:32.680Z,21.60
2018-07-12T01:47:00.848Z,22.53
2018-07-12T01:49:29.124Z,23.00
2018-07-12T01:51:57.375Z,20.57
2018-07-12T01:54:25.468Z,21.37
2018-07-12T01:56:53.645Z,22.50
2018-07-12T01:59:22.131Z,23.97
2018-07-12T02:01:50.588Z,22.20
2018-07-12T02:04:18.799Z,22.10
2018-07-12T02:06:46.935Z,23.23
2018-07-12T02:09:15.023Z,22.90
2018-07-12T02:11:43.491Z,25.00
2018-07-12T02:14:12.148Z,24.70
2018-07-12T02:16:40.551Z,21.43
2018-07-12T02:19:08.644Z,23.30
2018-07-12T02:21:37.300Z,23.33
2018-07-12T02:24:05.496Z,23.63
2018-07-12T02:26:33.873Z,24.30
2018-07-12T02:29:02.150Z,24.03
2018-07-12T02:31:30.451Z,23.40
2018-07-12T02:33:58.687Z,24.60
2018-07-12T02:36:26.771Z,22.57
2018-07-12T02:38:54.967Z,23.50
2018-07-12T02:41:23.119Z,23.00
2018-07-12T02:43:51.302Z,22.03
2018-07-12T02:46:19.660Z,23.33
2018-07-12T02:48:47.668Z,23.47
2018-07-12T02:51:15.922Z,22.80
2018-07-12T02:53:43.972Z,23.30
2018-07-12T02:56:12.277Z,23.43
2018-07-12T02:58:40.334Z,24.67
2018-07-12T03:01:09.066Z,24.10
2018-07-12T03:03:37.298Z,21.40
2018-07-12T03:06:05.826Z,22.47
2018-07-12T03:08:34.362Z,22.90
2018-07-12T03:11:02.871Z,22.80
2018-07-12T03:13:31.205Z,21.43
2018-07-12T03:16:00.070Z,22.63
2018-07-12T03:18:28.179Z,24.67
2018-07-12T03:20:56.763Z,23.43
2018-07-12T03:23:25.039Z,20.87
2018-07-12T03:25:53.421Z,20.70
2018-07-12T03:28:21.848Z,22.07
2018-07-12T03:30:50.148Z,21.93
2018-07-12T03:33:18.372Z,20.57
2018-07-12T03:35:47.130Z,22.57
2018-07-12T03:38:15.636Z,23.30
2018-07-12T03:40:44.042Z,21.73
2018-07-12T03:43:12.473Z,21.67
2018-07-12T03:45:40.783Z,20.43
2018-07-12T03:48:09.134Z,20.37
2018-07-12T03:50:37.409Z,21.50
2018-07-12T03:53:05.896Z,21.60
2018-07-12T03:55:34.329Z,20.20
2018-07-12T03:58:02.945Z,22.70
2018-07-12T04:00:31.533Z,20.80
2018-07-12T04:02:59.794Z,19.90
2018-07-12T04:05:28.375Z,20.23
2018-07-12T04:07:56.863Z,20.30
2018-07-12T04:10:25.276Z,20.00
2018-07-12T04:12:53.624Z,21.80
2018-07-12T04:15:21.909Z,19.83
2018-07-12T04:17:50.071Z,20.97
2018-07-12T04:20:18.166Z,19.93
2018-07-12T04:22:46.326Z,19.43
2018-07-12T04:25:14.693Z,20.30
2018-07-12T04:27:43.083Z,21.70
2018-07-12T04:30:11.505Z,19.27
2018-07-12T04:32:40.040Z,20.00
2018-07-12T04:35:09.248Z,21.40
2018-07-12T04:37:37.507Z,21.00
2018-07-12T04:40:06.013Z,21.20
2018-07-12T04:42:34.612Z,19.83
2018-07-12T04:45:02.834Z,17.33
2018-07-12T04:47:31.273Z,19.13
2018-07-12T04:49:59.305Z,22.70
2018-07-12T04:52:27.877Z,21.37
2018-07-12T04:54:56.561Z,17.80
2018-07-12T04:57:25.157Z,19.00
2018-07-12T04:59:53.208Z,18.57
2018-07-12T05:02:21.542Z,19.97
2018-07-12T05:04:50.320Z,19.40
2018-07-12T05:07:18.690Z,19.50
2018-07-12T05:09:46.842Z,19.70
2018-07-12T05:12:15.321Z,19.00
2018-07-12T05:14:44.153Z,19.60
2018-07-12T05:17:12.505Z,19.10
2018-07-12T05:19:41.185Z,18.03
2018-07-12T05:22:09.474Z,18.10
2018-07-12T05:24:37.929Z,18.33
2018-07-12T05:27:06.478Z,19.20
2018-07-12T05:29:35.101Z,17.47
2018-07-12T05:32:04.117Z,18.67
2018-07-12T05:34:32.574Z,16.90
2018-07-12T05:37:03.177Z,18.00
2018-07-12T05:39:33.490Z,16.30
2018-07-12T05:42:03.954Z,19.87
2018-07-12T05:44:34.266Z,19.20
2018-07-12T05:47:04.706Z,19.87
2018-07-12T05:49:35.116Z,20.07
2018-07-12T05:52:05.805Z,19.80
2018-07-12T05:54:36.282Z,17.80
2018-07-12T05:57:07.142Z,17.40
2018-07-12T05:59:37.700Z,19.67
2018-07-12T06:02:20.356Z,18.40
2018-07-12T06:04:51.212Z,18.43
2018-07-12T06:07:26.709Z,17.03
2018-07-12T06:09:57.412Z,15.20
2018-07-12T06:12:27.943Z,15.20
2018-07-12T06:14:58.346Z,16.47
2018-07-12T06:17:29.055Z,14.03
2018-07-12T06:20:00.162Z,15.70
2018-07-12T06:22:30.554Z,15.93
2018-07-12T06:25:01.145Z,15.40
2018-07-12T06:27:32.222Z,14.53
2018-07-12T06:30:02.774Z,15.77
2018-07-12T06:32:34.324Z,13.53
2018-07-12T06:35:05.043Z,15.87
2018-07-12T06:37:35.684Z,15.73
2018-07-12T06:40:07.324Z,17.07
2018-07-12T06:42:38.045Z,15.77
2018-07-12T06:45:08.767Z,16.07
2018-07-12T06:47:47.037Z,14.70
2018-07-12T06:50:23.639Z,15.50
2018-07-12T06:52:53.849Z,13.40
2018-07-12T06:55:26.776Z,16.00
2018-07-12T06:57:57.112Z,13.90
2018-07-12T07:00:27.735Z,15.27
2018-07-12T07:02:58.232Z,13.77
2018-07-12T07:05:28.474Z,14.23
2018-07-12T07:07:59.111Z,13.70
2018-07-12T07:10:29.572Z,14.50
2018-07-12T07:13:00.317Z,14.03
2018-07-12T07:15:30.670Z,14.40
2018-07-12T07:18:01.518Z,15.20
2018-07-12T07:20:31.953Z,15.43
2018-07-12T07:23:02.115Z,15.57
2018-07-12T07:25:33.302Z,15.10
2018-07-12T07:28:03.934Z,15.73
2018-07-12T07:30:34.518Z,15.60
2018-07-12T07:33:05.091Z,17.27
2018-07-12T07:35:35.786Z,16.40
2018-07-12T07:38:06.638Z,14.60
2018-07-12T07:40:37.382Z,14.37
2018-07-12T07:43:08.064Z,14.40
2018-07-12T07:45:41.568Z,14.83
2018-07-12T07:48:12.208Z,14.83
2018-07-12T07:50:42.671Z,15.80
2018-07-12T07:53:13.756Z,15.37
2018-07-12T07:55:51.310Z,13.83
2018-07-12T07:58:35.312Z,14.90
2018-07-12T08:01:17.919Z,14.63
2018-07-12T08:03:48.395Z,15.10
2018-07-12T08:06:31.182Z,14.67
2018-07-12T08:09:12.235Z,14.00
2018-07-12T08:11:42.528Z,14.90
2018-07-12T08:14:21.230Z,14.27
2018-07-12T08:17:07.998Z,13.43
2018-07-12T08:19:46.835Z,12.77
2018-07-12T08:22:24.366Z,15.30
2018-07-12T08:25:04.642Z,14.30
2018-07-12T08:27:59.758Z,13.20
2018-07-12T08:30:30.374Z,14.03
2018-07-12T08:33:01.280Z,14.70
2018-07-12T08:35:32.333Z,12.07
2018-07-12T08:38:06.007Z,13.10
2018-07-12T08:40:39.416Z,13.60
2018-07-12T08:43:11.069Z,13.00
2018-07-12T08:45:44.320Z,12.83
2018-07-12T08:48:19.160Z,12.60
2018-07-12T08:50:49.917Z,11.70
2018-07-12T08:53:24.797Z,11.73
2018-07-12T08:55:55.980Z,12.10
2018-07-12T08:58:27.253Z,12.30
2018-07-12T09:01:06.750Z,12.27
2018-07-12T09:03:42.573Z,12.87
2018-07-12T09:06:18.432Z,14.03
2018-07-12T09:08:58.174Z,13.17
2018-07-12T09:11:34.189Z,12.13
2018-07-12T09:14:10.909Z,12.83
2018-07-12T09:16:41.901Z,12.50
2018-07-12T09:19:12.350Z,11.90
2018-07-12T09:21:43.088Z,12.37
2018-07-12T09:24:13.405Z,11.20
2018-07-12T09:26:47.757Z,11.63
2018-07-12T09:29:23.942Z,10.50
2018-07-12T09:31:59.181Z,10.70
2018-07-12T09:34:35.309Z,11.40
2018-07-12T09:37:06.396Z,11.40
2018-07-12T09:39:40.852Z,11.80
2018-07-12T09:42:14.991Z,10.87
2018-07-12T09:44:48.634Z,12.20
2018-07-12T09:47:21.118Z,11.77
2018-07-12T09:49:58.526Z,10.67
2018-07-12T09:52:36.590Z,11.87
2018-07-12T09:55:07.489Z,12.10
2018-07-12T09:57:42.759Z,11.70
2018-07-12T10:00:13.395Z,12.37
2018-07-12T10:02:48.846Z,11.70
2018-07-12T10:05:24.430Z,11.30
2018-07-12T10:07:59.805Z,12.37
2018-07-12T10:10:31.477Z,11.83
2018-07-12T10:13:10.845Z,10.60
2018-07-12T10:15:44.536Z,11.70
2018-07-12T10:18:20.097Z,12.30
2018-07-12T10:20:50.973Z,12.37
2018-07-12T10:23:21.439Z,11.50
2018-07-12T10:25:51.789Z,12.00
2018-07-12T10:28:26.126Z,11.37
2018-07-12T10:30:56.319Z,12.17
2018-07-12T10:33:29.246Z,24.00
2018-07-12T10:35:59.423Z,30.53
2018-07-12T10:38:29.950Z,31.47
2018-07-12T10:41:00.509Z,21.60
2018-07-12T10:43:31.038Z,24.60
2018-07-12T10:46:02.078Z,18.63
2018-07-12T10:48:32.733Z,17.27
2018-07-12T10:51:02.595Z,15.40
2018-07-12T10:53:33.134Z,16.37
2018-07-12T10:56:03.923Z,17.07
2018-07-12T10:58:34.253Z,16.43
2018-07-12T11:01:05.089Z,15.57
2018-07-12T11:03:35.885Z,14.23
2018-07-12T11:06:06.454Z,12.33
2018-07-12T11:08:36.925Z,12.80
2018-07-12T11:11:07.293Z,11.23
2018-07-12T11:13:47.754Z,12.60
2018-07-12T11:16:18.323Z,16.30
2018-07-12T11:18:49.013Z,37.63
2018-07-12T11:21:19.485Z,66.50
2018-07-12T11:23:50.110Z,25.50
2018-07-12T11:26:20.794Z,20.40
2018-07-12T11:28:51.486Z,18.90
2018-07-12T11:31:22.205Z,11.37
2018-07-12T11:33:52.717Z,11.33
2018-07-12T11:36:23.215Z,10.83
2018-07-12T11:38:53.935Z,11.60
2018-07-12T11:41:25.280Z,11.00
2018-07-12T11:43:54.837Z,12.00
2018-07-12T11:46:26.190Z,13.07
2018-07-12T11:48:57.383Z,13.30
2018-07-12T11:51:27.997Z,13.20
2018-07-12T11:53:58.830Z,13.30
2018-07-12T11:56:29.214Z,14.43
2018-07-12T11:58:59.693Z,12.53
2018-07-12T12:01:30.241Z,13.77
2018-07-12T12:04:01.118Z,15.50
2018-07-12T12:06:31.677Z,14.37
2018-07-12T12:09:02.557Z,14.03
2018-07-12T12:11:33.486Z,13.57
2018-07-12T12:14:04.285Z,13.93
2018-07-12T12:16:35.198Z,14.33
2018-07-12T12:19:05.997Z,15.80
2018-07-12T12:21:36.365Z,15.00
2018-07-12T12:24:06.957Z,15.30
2018-07-12T12:26:37.134Z,14.07
2018-07-12T12:29:07.918Z,15.23
2018-07-12T12:31:38.654Z,15.00
2018-07-12T12:34:09.533Z,15.20
2018-07-12T12:36:40.114Z,16.60
2018-07-12T12:39:09.678Z,16.20
2018-07-12T12:41:40.096Z,17.50
2018-07-12T12:44:10.974Z,18.10
2018-07-12T12:46:40.526Z,18.60
2018-07-12T12:49:11.309Z,18.87
2018-07-12T12:51:41.085Z,19.67
2018-07-12T12:54:12.109Z,18.67
2018-07-12T12:56:42.926Z,18.77
2018-07-12T12:59:13.326Z,18.07
2018-07-12T13:01:43.646Z,17.90
2018-07-12T13:04:14.622Z,17.10
2018-07-12T13:06:45.045Z,17.13
2018-07-12T13:09:15.870Z,17.10
2018-07-12T13:11:46.318Z,17.80
2018-07-12T13:14:16.977Z,17.77
2018-07-12T13:16:47.598Z,18.90
2018-07-12T13:19:18.207Z,20.33
2018-07-12T13:21:48.836Z,17.90
2018-07-12T13:24:19.174Z,19.83
2018-07-12T13:26:49.853Z,19.17
2018-07-12T13:29:20.453Z,17.90
2018-07-12T13:31:51.351Z,18.67
2018-07-12T13:34:22.126Z,17.80
2018-07-12T13:36:52.274Z,17.93
2018-07-12T13:39:22.813Z,19.77
2018-07-12T13:41:53.493Z,19.03
2018-07-12T13:44:24.813Z,18.40
2018-07-12T13:46:55.967Z,19.73
2018-07-12T13:49:27.133Z,20.53
2018-07-12T13:51:57.919Z,16.70
2018-07-12T13:54:28.766Z,16.80
2018-07-12T13:56:59.261Z,16.50
2018-07-12T13:59:29.934Z,16.00
2018-07-12T14:02:00.606Z,17.60
2018-07-12T14:04:31.069Z,17.40
2018-07-12T14:07:00.799Z,16.23
2018-07-12T14:09:30.990Z,16.07
2018-07-12T14:12:00.685Z,16.60
2018-07-12T14:14:31.116Z,16.00
2018-07-12T14:17:01.294Z,15.90
2018-07-12T14:19:31.613Z,16.50
2018-07-12T14:22:02.238Z,16.53
2018-07-12T14:24:32.525Z,15.80
2018-07-12T14:27:02.658Z,16.80
2018-07-12T14:29:33.373Z,15.80
2018-07-12T14:32:03.757Z,17.07
2018-07-12T14:34:34.413Z,16.40
2018-07-12T14:37:04.845Z,16.60
2018-07-12T14:39:35.404Z,15.17
2018-07-12T14:42:05.871Z,15.53
2018-07-12T14:44:36.733Z,15.23
2018-07-12T14:47:07.021Z,15.47
2018-07-12T14:49:38.001Z,14.10
2018-07-12T14:52:08.564Z,14.60
2018-07-12T14:54:38.314Z,13.80
2018-07-12T14:57:08.802Z,13.50
2018-07-12T14:59:39.895Z,13.40
2018-07-12T15:02:10.872Z,14.00
2018-07-12T15:04:40.661Z,15.10
2018-07-12T15:07:10.979Z,14.80
2018-07-12T15:09:41.733Z,14.37
2018-07-12T15:12:12.001Z,14.37
2018-07-12T15:14:43.842Z,15.20
2018-07-12T15:17:14.833Z,13.90
2018-07-12T15:19:45.345Z,14.67
2018-07-12T15:22:16.220Z,14.20
2018-07-12T15:24:46.051Z,13.70
2018-07-12T15:27:17.851Z,13.90
2018-07-12T15:29:51.602Z,32.37
2018-07-12T15:32:21.442Z,13.30
2018-07-12T15:34:51.322Z,13.37
2018-07-12T15:37:22.098Z,13.00
2018-07-12T15:39:52.530Z,14.20
2018-07-12T15:42:23.955Z,12.83
2018-07-12T15:46:13.418Z,13.27
2018-07-12T15:48:43.401Z,11.60
2018-07-12T15:51:13.778Z,14.40
2018-07-12T15:53:44.097Z,14.20
2018-07-12T15:56:14.382Z,15.43
2018-07-12T15:58:45.713Z,14.87
2018-07-12T16:01:16.321Z,14.80
2018-07-12T16:03:46.723Z,14.53
2018-07-12T16:06:17.473Z,13.60
2018-07-12T16:08:48.961Z,13.40
2018-07-12T16:11:19.121Z,13.90
2018-07-12T16:13:49.394Z,13.00
2018-07-12T16:16:21.105Z,12.03
2018-07-12T16:18:52.724Z,12.00
2018-07-12T16:21:23.331Z,14.57
2018-07-12T16:23:53.545Z,14.13
2018-07-12T16:26:24.305Z,12.57
2018-07-12T16:28:55.185Z,13.43
2018-07-12T16:31:26.006Z,13.30
2018-07-12T16:33:56.576Z,13.07
2018-07-12T16:36:28.109Z,12.20
2018-07-12T16:38:58.429Z,13.47
2018-07-12T16:41:28.701Z,14.37
2018-07-12T16:43:59.456Z,12.27
2018-07-12T16:46:29.936Z,10.97
2018-07-12T16:49:00.163Z,10.83
2018-07-12T16:51:30.976Z,12.40
2018-07-12T16:54:01.788Z,10.70
2018-07-12T16:56:31.393Z,12.83
2018-07-12T16:59:02.909Z,12.50
2018-07-12T17:01:33.977Z,13.00
2018-07-12T17:04:04.328Z,10.80
2018-07-12T17:06:35.028Z,11.80
2018-07-12T17:09:06.708Z,10.93
2018-07-12T17:11:37.299Z,11.17
2018-07-12T17:14:09.005Z,11.07
2018-07-12T17:16:39.486Z,11.93
2018-07-12T17:19:09.881Z,11.07
2018-07-12T17:21:40.559Z,11.90
2018-07-12T17:24:10.624Z,12.60
2018-07-12T17:26:42.086Z,12.60
2018-07-12T17:29:12.538Z,12.90
2018-07-12T17:31:43.524Z,13.57
2018-07-12T17:34:13.999Z,11.60
2018-07-12T17:36:44.365Z,14.63
2018-07-12T17:39:14.248Z,13.87
2018-07-12T17:41:45.005Z,14.27
2018-07-12T17:44:14.515Z,12.77
2018-07-12T17:46:45.558Z,13.43
2018-07-12T17:49:15.476Z,12.90
2018-07-12T17:51:46.332Z,12.30
2018-07-12T17:54:17.532Z,12.47
2018-07-12T17:56:48.425Z,14.13
2018-07-12T17:59:19.070Z,12.73
2018-07-12T18:01:50.187Z,13.97
2018-07-12T18:04:20.783Z,12.47
2018-07-12T18:06:51.626Z,13.23
2018-07-12T18:09:22.492Z,13.30
2018-07-12T18:11:53.112Z,13.30
2018-07-12T18:14:23.772Z,14.93
2018-07-12T18:16:54.175Z,14.03
2018-07-12T18:19:24.661Z,15.40
2018-07-12T18:21:55.471Z,14.40
2018-07-12T18:24:25.984Z,13.10
2018-07-12T18:26:56.460Z,14.20
2018-07-12T18:29:27.391Z,15.07
2018-07-12T18:31:58.301Z,14.27
2018-07-12T18:34:28.736Z,13.07
2018-07-12T18:36:59.434Z,12.43
2018-07-12T18:39:29.963Z,12.80
2018-07-12T18:42:00.766Z,13.43
2018-07-12T18:44:30.772Z,13.00
2018-07-12T18:47:01.745Z,14.13
2018-07-12T18:49:32.932Z,12.70
2018-07-12T18:52:03.484Z,13.60
2018-07-12T18:54:34.046Z,13.03
2018-07-12T18:57:04.564Z,13.40
2018-07-12T18:59:34.978Z,14.00
2018-07-12T19:02:05.639Z,14.27
2018-07-12T19:04:36.229Z,12.90
2018-07-12T19:07:06.922Z,13.43
2018-07-12T19:09:37.688Z,14.20
2018-07-12T19:12:08.649Z,14.20
2018-07-12T19:14:38.452Z,12.23
2018-07-12T19:17:08.940Z,12.70
2018-07-12T19:19:39.376Z,12.30
2018-07-12T19:22:10.119Z,10.83
2018-07-12T19:24:40.730Z,10.83
2018-07-12T19:27:11.456Z,10.43
2018-07-12T19:29:43.254Z,10.13
2018-07-12T19:32:13.789Z,10.70
2018-07-12T19:34:44.287Z,9.20
2018-07-12T19:37:15.041Z,10.53
2018-07-12T19:39:45.991Z,11.07
2018-07-12T19:42:17.068Z,9.50
2018-07-12T19:44:47.322Z,9.07
2018-07-12T19:47:17.987Z,9.23
2018-07-12T19:49:48.530Z,8.83
2018-07-12T19:52:18.451Z,9.30
2018-07-12T19:54:49.204Z,10.00
2018-07-12T19:57:19.709Z,9.10
2018-07-12T19:59:50.165Z,9.47
2018-07-12T20:02:20.740Z,9.67
2018-07-12T20:04:51.394Z,8.20
2018-07-12T20:07:21.910Z,12.57
2018-07-12T20:09:52.423Z,10.80
2018-07-12T20:12:23.513Z,10.87
2018-07-12T20:14:54.024Z,9.50
2018-07-12T20:17:24.711Z,8.83
2018-07-12T20:19:55.484Z,9.07
2018-07-12T20:22:26.245Z,9.10
2018-07-12T20:24:57.454Z,9.27
2018-07-12T20:27:29.021Z,8.67
2018-07-12T20:29:59.658Z,9.07
2018-07-12T20:32:29.992Z,9.17
2018-07-12T20:35:01.659Z,7.80
2018-07-12T20:37:32.450Z,8.47
2018-07-12T20:40:03.019Z,7.90
2018-07-12T20:42:33.955Z,8.47
2018-07-12T20:45:05.504Z,8.20
2018-07-12T20:47:36.179Z,8.40
2018-07-12T20:50:07.763Z,8.30
2018-07-12T20:52:38.241Z,8.00
2018-07-12T20:55:08.896Z,8.00
2018-07-12T20:57:39.765Z,7.67
2018-07-12T21:00:10.346Z,8.60
2018-07-12T21:02:41.071Z,7.67
2018-07-12T21:05:11.905Z,8.70
2018-07-12T21:07:42.441Z,9.27
2018-07-12T21:10:13.003Z,7.63
2018-07-12T21:12:43.470Z,9.10
2018-07-12T21:15:14.056Z,9.40
2018-07-12T21:17:44.475Z,10.40
2018-07-12T21:20:14.864Z,10.33
2018-07-12T21:22:45.446Z,10.73
2018-07-12T21:25:15.876Z,10.67
2018-07-12T21:27:46.425Z,10.60
2018-07-12T21:30:17.035Z,11.20
2018-07-12T21:32:47.400Z,10.73
2018-07-12T21:35:18.206Z,11.10
2018-07-12T21:37:48.831Z,12.77
2018-07-12T21:40:18.651Z,11.23
2018-07-12T21:42:48.827Z,11.33
2018-07-12T21:45:19.128Z,12.23
2018-07-12T21:47:49.485Z,11.80
2018-07-12T21:50:20.255Z,12.30
2018-07-12T21:52:51.001Z,12.53
2018-07-12T21:55:22.861Z,13.03
2018-07-12T21:57:56.134Z,12.90
2018-07-12T22:00:26.540Z,12.27
2018-07-12T22:02:57.116Z,13.80
2018-07-12T22:05:27.712Z,13.87
2018-07-12T22:08:22.380Z,13.83
2018-07-12T22:10:54.066Z,13.50
2018-07-12T22:13:24.837Z,14.47
2018-07-12T22:15:55.164Z,14.33
2018-07-12T22:18:25.521Z,13.90
2018-07-12T22:20:55.930Z,12.83
2018-07-12T22:23:26.599Z,13.93
2018-07-12T22:25:57.361Z,15.20
2018-07-12T22:28:27.676Z,14.80
2018-07-12T22:30:57.825Z,15.00
2018-07-12T22:33:27.870Z,15.43
2018-07-12T22:35:58.384Z,15.60
2018-07-12T22:38:28.799Z,15.57
2018-07-12T22:40:59.340Z,15.00
2018-07-12T22:43:30.908Z,15.20
2018-07-12T22:46:01.154Z,15.30
2018-07-12T22:48:31.517Z,15.57
2018-07-12T22:51:01.885Z,15.03
2018-07-12T22:53:32.173Z,15.77
2018-07-12T22:56:02.181Z,15.97
2018-07-12T22:58:32.994Z,15.50
2018-07-12T23:01:03.417Z,15.67
2018-07-12T23:03:34.241Z,15.30
2018-07-12T23:06:03.811Z,15.13
2018-07-12T23:08:34.168Z,16.97
2018-07-12T23:11:03.627Z,16.00
2018-07-12T23:13:33.995Z,15.93
2018-07-12T23:16:04.520Z,14.70
2018-07-12T23:18:34.629Z,15.63
2018-07-12T23:21:04.678Z,16.10
2018-07-12T23:23:34.844Z,14.67
2018-07-12T23:26:05.673Z,15.37
2018-07-12T23:28:36.084Z,16.20
2018-07-12T23:31:06.202Z,14.90
2018-07-12T23:33:36.275Z,15.13
2018-07-12T23:36:06.408Z,15.90
2018-07-12T23:38:36.546Z,15.80
2018-07-12T23:41:06.996Z,14.90
2018-07-12T23:43:37.425Z,14.80
2018-07-12T23:46:08.005Z,15.33
2018-07-12T23:48:38.726Z,15.27
2018-07-12T23:52:28.024Z,15.10
2018-07-12T23:54:57.779Z,16.60
2018-07-12T23:57:28.049Z,16.30
2018-07-12T23:59:57.473Z,16.57
